sensor_id;sensor_type;location;lat;lon;timestamp;temperature;humidity
4795;DHT22;2411;47.060;15.064;2022-08-04T00:04:51;17.20;1.00
4795;DHT22;2411;47.060;15.064;2022-08-04T00:10:17;17.10;1.00
4795;DHT22;2411;47.060;15.064;2022-08-04T00:12:47;17.10;1.00
4795;DHT22;2411;47.060;15.064;2022-08-04T00:15:16;17.10;1.00
4795;DHT22;2411;47.060;15.064;2022-08-04T00:18:06;17.00;1.00
4795;DHT22;2411;47.060;15.064;2022-08-04T00:20:37;17.00;1.00
4795;DHT22;2411;47.060;15.064;2022-08-04T00:23:05;17.00;1.00
4795;DHT22;2411;47.060;15.064;2022-08-04T00:25:32;17.00;1.00
4795;DHT22;2411;47.060;15.064;2022-08-04T00:28:00;17.00;1.00
4795;DHT22;2411;47.060;15.064;2022-08-04T00:30:30;16.90;1.00
4795;DHT22;2411;47.060;15.064;2022-08-04T00:32:59;16.90;1.00
4795;DHT22;2411;47.060;15.064;2022-08-04T00:35:27;16.90;1.00
4795;DHT22;2411;47.060;15.064;2022-08-04T00:37:55;16.90;1.00
4795;DHT22;2411;47.060;15.064;2022-08-04T00:40:39;16.90;1.00
4795;DHT22;2411;47.060;15.064;2022-08-04T00:43:17;16.90;1.00
4795;DHT22;2411;47.060;15.064;2022-08-04T00:54:32;16.80;1.00
4795;DHT22;2411;47.060;15.064;2022-08-04T01:00:07;16.70;1.00
4795;DHT22;2411;47.060;15.064;2022-08-04T01:16:46;16.40;1.00
4795;DHT22;2411;47.060;15.064;2022-08-04T01:25:37;16.40;1.00
4795;DHT22;2411;47.060;15.064;2022-08-04T01:28:40;16.50;1.00
4795;DHT22;2411;47.060;15.064;2022-08-04T01:34:05;16.50;1.00
4795;DHT22;2411;47.060;15.064;2022-08-04T01:36:35;16.50;1.00
4795;DHT22;2411;47.060;15.064;2022-08-04T01:39:02;16.40;1.00
4795;DHT22;2411;47.060;15.064;2022-08-04T01:41:51;16.40;1.00
4795;DHT22;2411;47.060;15.064;2022-08-04T01:44:26;16.30;1.00
4795;DHT22;2411;47.060;15.064;2022-08-04T01:46:55;16.30;1.00
4795;DHT22;2411;47.060;15.064;2022-08-04T01:49:28;16.20;1.00
4795;DHT22;2411;47.060;15.064;2022-08-04T01:52:07;16.20;1.00
4795;DHT22;2411;47.060;15.064;2022-08-04T01:54:37;16.20;1.00
4795;DHT22;2411;47.060;15.064;2022-08-04T01:57:05;16.10;1.00
4795;DHT22;2411;47.060;15.064;2022-08-04T01:59:52;16.10;1.00
4795;DHT22;2411;47.060;15.064;2022-08-04T02:02:22;16.10;1.00
4795;DHT22;2411;47.060;15.064;2022-08-04T02:04:52;16.10;1.00
4795;DHT22;2411;47.060;15.064;2022-08-04T02:10:34;16.10;1.00
4795;DHT22;2411;47.060;15.064;2022-08-04T02:13:15;16.10;1.00
4795;DHT22;2411;47.060;15.064;2022-08-04T02:21:00;16.10;1.00
4795;DHT22;2411;47.060;15.064;2022-08-04T02:23:40;16.10;1.00
4795;DHT22;2411;47.060;15.064;2022-08-04T02:26:16;16.10;1.00
4795;DHT22;2411;47.060;15.064;2022-08-04T02:32:06;16.00;1.00
4795;DHT22;2411;47.060;15.064;2022-08-04T02:37:30;16.00;1.00
4795;DHT22;2411;47.060;15.064;2022-08-04T02:39:59;16.10;1.00
4795;DHT22;2411;47.060;15.064;2022-08-04T02:42:28;16.00;1.00
4795;DHT22;2411;47.060;15.064;2022-08-04T02:44:57;16.00;1.00
4795;DHT22;2411;47.060;15.064;2022-08-04T02:47:27;16.10;1.00
4795;DHT22;2411;47.060;15.064;2022-08-04T02:50:14;16.00;1.00
4795;DHT22;2411;47.060;15.064;2022-08-04T02:52:57;15.90;1.00
4795;DHT22;2411;47.060;15.064;2022-08-04T02:55:26;15.90;1.00
4795;DHT22;2411;47.060;15.064;2022-08-04T02:57:57;15.90;1.00
4795;DHT22;2411;47.060;15.064;2022-08-04T03:00:24;15.90;1.00
4795;DHT22;2411;47.060;15.064;2022-08-04T03:40:57;15.70;1.00
4795;DHT22;2411;47.060;15.064;2022-08-04T04:00:19;15.50;1.00
4795;DHT22;2411;47.060;15.064;2022-08-04T04:09:01;15.60;1.00
4795;DHT22;2411;47.060;15.064;2022-08-04T04:30:40;16.10;1.00
4795;DHT22;2411;47.060;15.064;2022-08-04T04:49:47;16.50;1.00
4795;DHT22;2411;47.060;15.064;2022-08-04T04:54:57;16.70;1.00
4795;DHT22;2411;47.060;15.064;2022-08-04T04:57:33;16.80;1.00
4795;DHT22;2411;47.060;15.064;2022-08-04T05:00:23;16.90;1.00
4795;DHT22;2411;47.060;15.064;2022-08-04T05:03:30;17.10;1.00
4795;DHT22;2411;47.060;15.064;2022-08-04T05:14:23;17.50;1.00
4795;DHT22;2411;47.060;15.064;2022-08-04T05:17:26;17.60;1.00
4795;DHT22;2411;47.060;15.064;2022-08-04T05:20:06;17.80;1.00
4795;DHT22;2411;47.060;15.064;2022-08-04T05:22:46;18.00;1.00
4795;DHT22;2411;47.060;15.064;2022-08-04T05:25:24;18.10;1.00
4795;DHT22;2411;47.060;15.064;2022-08-04T05:28:04;18.20;1.00
4795;DHT22;2411;47.060;15.064;2022-08-04T05:30:38;18.30;1.00
4795;DHT22;2411;47.060;15.064;2022-08-04T05:33:42;18.50;1.00
4795;DHT22;2411;47.060;15.064;2022-08-04T05:36:16;18.60;1.00
4795;DHT22;2411;47.060;15.064;2022-08-04T05:39:05;18.70;1.00
4795;DHT22;2411;47.060;15.064;2022-08-04T05:41:34;18.80;1.00
4795;DHT22;2411;47.060;15.064;2022-08-04T05:44:18;18.90;1.00
4795;DHT22;2411;47.060;15.064;2022-08-04T05:46:50;19.10;1.00
4795;DHT22;2411;47.060;15.064;2022-08-04T05:49:30;19.20;1.00
4795;DHT22;2411;47.060;15.064;2022-08-04T05:52:02;19.30;1.00
4795;DHT22;2411;47.060;15.064;2022-08-04T05:54:32;19.40;1.00
4795;DHT22;2411;47.060;15.064;2022-08-04T05:57:02;19.50;1.00
4795;DHT22;2411;47.060;15.064;2022-08-04T05:59:31;19.60;1.00
4795;DHT22;2411;47.060;15.064;2022-08-04T06:01:59;19.70;1.00
4795;DHT22;2411;47.060;15.064;2022-08-04T06:04:41;19.90;1.00
4795;DHT22;2411;47.060;15.064;2022-08-04T06:07:08;20.00;1.00
4795;DHT22;2411;47.060;15.064;2022-08-04T06:09:41;20.10;1.00
4795;DHT22;2411;47.060;15.064;2022-08-04T06:12:14;20.20;1.00
4795;DHT22;2411;47.060;15.064;2022-08-04T06:14:47;20.30;1.00
4795;DHT22;2411;47.060;15.064;2022-08-04T06:17:21;20.40;1.00
4795;DHT22;2411;47.060;15.064;2022-08-04T06:20:09;20.50;1.00
4795;DHT22;2411;47.060;15.064;2022-08-04T06:22:54;20.70;1.00
4795;DHT22;2411;47.060;15.064;2022-08-04T06:25:24;20.80;1.00
4795;DHT22;2411;47.060;15.064;2022-08-04T06:27:54;20.90;1.00
4795;DHT22;2411;47.060;15.064;2022-08-04T06:30:22;20.90;1.00
4795;DHT22;2411;47.060;15.064;2022-08-04T06:32:53;21.10;1.00
4795;DHT22;2411;47.060;15.064;2022-08-04T06:35:31;21.10;1.00
4795;DHT22;2411;47.060;15.064;2022-08-04T06:37:59;21.30;1.00
4795;DHT22;2411;47.060;15.064;2022-08-04T06:40:28;21.40;1.00
4795;DHT22;2411;47.060;15.064;2022-08-04T06:43:05;21.50;1.00
4795;DHT22;2411;47.060;15.064;2022-08-04T06:45:36;21.60;1.00
4795;DHT22;2411;47.060;15.064;2022-08-04T06:48:06;21.70;1.00
4795;DHT22;2411;47.060;15.064;2022-08-04T06:50:35;21.80;1.00
4795;DHT22;2411;47.060;15.064;2022-08-04T06:53:28;21.90;1.00
4795;DHT22;2411;47.060;15.064;2022-08-04T06:55:56;22.10;1.00
4795;DHT22;2411;47.060;15.064;2022-08-04T06:58:27;22.10;1.00
4795;DHT22;2411;47.060;15.064;2022-08-04T07:00:57;22.20;1.00
4795;DHT22;2411;47.060;15.064;2022-08-04T07:03:28;22.30;1.00
4795;DHT22;2411;47.060;15.064;2022-08-04T07:05:56;22.40;1.00
4795;DHT22;2411;47.060;15.064;2022-08-04T07:08:31;22.50;1.00
4795;DHT22;2411;47.060;15.064;2022-08-04T07:10:58;22.60;1.00
4795;DHT22;2411;47.060;15.064;2022-08-04T07:13:30;22.80;1.00
4795;DHT22;2411;47.060;15.064;2022-08-04T07:15:58;22.90;1.00
4795;DHT22;2411;47.060;15.064;2022-08-04T07:18:27;23.00;1.00
4795;DHT22;2411;47.060;15.064;2022-08-04T07:20:56;23.00;1.00
4795;DHT22;2411;47.060;15.064;2022-08-04T07:23:25;23.10;1.00
4795;DHT22;2411;47.060;15.064;2022-08-04T07:25:54;23.30;1.00
4795;DHT22;2411;47.060;15.064;2022-08-04T07:28:38;23.40;1.00
4795;DHT22;2411;47.060;15.064;2022-08-04T07:31:09;23.50;1.00
4795;DHT22;2411;47.060;15.064;2022-08-04T07:33:57;23.70;1.00
4795;DHT22;2411;47.060;15.064;2022-08-04T07:36:45;23.80;1.00
4795;DHT22;2411;47.060;15.064;2022-08-04T07:39:16;23.90;1.00
4795;DHT22;2411;47.060;15.064;2022-08-04T07:41:55;24.00;1.00
4795;DHT22;2411;47.060;15.064;2022-08-04T07:44:22;24.10;1.00
4795;DHT22;2411;47.060;15.064;2022-08-04T07:46:49;24.20;1.00
4795;DHT22;2411;47.060;15.064;2022-08-04T07:49:16;24.20;1.00
4795;DHT22;2411;47.060;15.064;2022-08-04T07:52:03;24.20;1.00
4795;DHT22;2411;47.060;15.064;2022-08-04T07:54:32;24.30;1.00
4795;DHT22;2411;47.060;15.064;2022-08-04T07:57:01;24.50;1.00
4795;DHT22;2411;47.060;15.064;2022-08-04T07:59:28;24.50;1.00
4795;DHT22;2411;47.060;15.064;2022-08-04T08:01:58;24.60;1.00
4795;DHT22;2411;47.060;15.064;2022-08-04T08:04:27;24.70;1.00
4795;DHT22;2411;47.060;15.064;2022-08-04T08:06:56;24.80;1.00
4795;DHT22;2411;47.060;15.064;2022-08-04T08:09:24;24.90;1.00
4795;DHT22;2411;47.060;15.064;2022-08-04T08:11:52;25.00;1.00
4795;DHT22;2411;47.060;15.064;2022-08-04T08:14:40;25.00;1.00
4795;DHT22;2411;47.060;15.064;2022-08-04T08:17:08;25.20;1.00
4795;DHT22;2411;47.060;15.064;2022-08-04T08:19:35;25.30;1.00
4795;DHT22;2411;47.060;15.064;2022-08-04T08:22:03;25.40;1.00
4795;DHT22;2411;47.060;15.064;2022-08-04T08:24:32;25.40;1.00
4795;DHT22;2411;47.060;15.064;2022-08-04T08:27:02;25.50;1.00
4795;DHT22;2411;47.060;15.064;2022-08-04T08:29:33;25.60;1.00
4795;DHT22;2411;47.060;15.064;2022-08-04T08:32:02;25.80;1.00
4795;DHT22;2411;47.060;15.064;2022-08-04T08:34:34;25.90;1.00
4795;DHT22;2411;47.060;15.064;2022-08-04T08:40:29;26.00;1.00
4795;DHT22;2411;47.060;15.064;2022-08-04T08:43:18;26.10;1.00
4795;DHT22;2411;47.060;15.064;2022-08-04T09:00:39;26.50;1.00
4795;DHT22;2411;47.060;15.064;2022-08-04T09:11:38;26.70;1.00
4795;DHT22;2411;47.060;15.064;2022-08-04T09:17:26;27.00;1.00
4795;DHT22;2411;47.060;15.064;2022-08-04T09:22:59;27.20;1.00
4795;DHT22;2411;47.060;15.064;2022-08-04T09:25:36;27.30;1.00
4795;DHT22;2411;47.060;15.064;2022-08-04T09:28:10;27.20;1.00
4795;DHT22;2411;47.060;15.064;2022-08-04T09:31:00;27.30;1.00
4795;DHT22;2411;47.060;15.064;2022-08-04T09:33:47;27.40;1.00
4795;DHT22;2411;47.060;15.064;2022-08-04T09:36:31;27.50;1.00
4795;DHT22;2411;47.060;15.064;2022-08-04T09:42:10;27.60;1.00
4795;DHT22;2411;47.060;15.064;2022-08-04T09:45:14;27.60;1.00
4795;DHT22;2411;47.060;15.064;2022-08-04T09:47:58;27.60;1.00
4795;DHT22;2411;47.060;15.064;2022-08-04T09:50:38;27.80;1.00
4795;DHT22;2411;47.060;15.064;2022-08-04T10:01:52;28.20;1.00
4795;DHT22;2411;47.060;15.064;2022-08-04T10:04:29;28.20;1.00
4795;DHT22;2411;47.060;15.064;2022-08-04T10:15:09;28.40;1.00
4795;DHT22;2411;47.060;15.064;2022-08-04T10:28:48;28.60;1.00
4795;DHT22;2411;47.060;15.064;2022-08-04T10:31:25;28.60;1.00
4795;DHT22;2411;47.060;15.064;2022-08-04T10:34:09;28.60;1.00
4795;DHT22;2411;47.060;15.064;2022-08-04T10:39:20;28.70;1.00
4795;DHT22;2411;47.060;15.064;2022-08-04T10:42:18;28.80;1.00
4795;DHT22;2411;47.060;15.064;2022-08-04T10:45:01;28.80;1.00
4795;DHT22;2411;47.060;15.064;2022-08-04T10:47:34;28.90;1.00
4795;DHT22;2411;47.060;15.064;2022-08-04T10:50:04;29.00;1.00
4795;DHT22;2411;47.060;15.064;2022-08-04T10:52:44;29.10;1.00
4795;DHT22;2411;47.060;15.064;2022-08-04T10:55:20;29.10;1.00
4795;DHT22;2411;47.060;15.064;2022-08-04T10:58:15;29.10;1.00
4795;DHT22;2411;47.060;15.064;2022-08-04T11:00:44;29.20;1.00
4795;DHT22;2411;47.060;15.064;2022-08-04T11:03:34;29.30;1.00
4795;DHT22;2411;47.060;15.064;2022-08-04T11:06:04;29.30;1.00
4795;DHT22;2411;47.060;15.064;2022-08-04T11:08:34;29.30;1.00
4795;DHT22;2411;47.060;15.064;2022-08-04T11:11:23;29.40;1.00
4795;DHT22;2411;47.060;15.064;2022-08-04T11:14:10;29.50;1.00
4795;DHT22;2411;47.060;15.064;2022-08-04T11:16:49;29.40;1.00
4795;DHT22;2411;47.060;15.064;2022-08-04T11:19:33;29.60;1.00
4795;DHT22;2411;47.060;15.064;2022-08-04T11:30:51;29.90;1.00
4795;DHT22;2411;47.060;15.064;2022-08-04T11:41:14;30.00;1.00
4795;DHT22;2411;47.060;15.064;2022-08-04T11:43:54;30.10;1.00
4795;DHT22;2411;47.060;15.064;2022-08-04T11:46:46;30.00;1.00
4795;DHT22;2411;47.060;15.064;2022-08-04T11:49:36;29.90;1.00
4795;DHT22;2411;47.060;15.064;2022-08-04T11:52:25;30.00;1.00
4795;DHT22;2411;47.060;15.064;2022-08-04T11:54:53;30.00;1.00
4795;DHT22;2411;47.060;15.064;2022-08-04T11:57:23;29.90;1.00
4795;DHT22;2411;47.060;15.064;2022-08-04T12:00:08;30.00;1.00
4795;DHT22;2411;47.060;15.064;2022-08-04T12:03:10;30.00;1.00
4795;DHT22;2411;47.060;15.064;2022-08-04T12:05:50;29.90;1.00
4795;DHT22;2411;47.060;15.064;2022-08-04T12:08:40;30.00;1.00
4795;DHT22;2411;47.060;15.064;2022-08-04T12:16:58;30.10;1.00
4795;DHT22;2411;47.060;15.064;2022-08-04T12:22:23;30.30;1.00
4795;DHT22;2411;47.060;15.064;2022-08-04T12:25:09;30.30;1.00
4795;DHT22;2411;47.060;15.064;2022-08-04T12:27:46;30.30;1.00
4795;DHT22;2411;47.060;15.064;2022-08-04T12:30:17;30.30;1.00
4795;DHT22;2411;47.060;15.064;2022-08-04T12:33:19;30.30;1.00
4795;DHT22;2411;47.060;15.064;2022-08-04T12:35:54;30.40;1.00
4795;DHT22;2411;47.060;15.064;2022-08-04T12:38:46;30.50;1.00
4795;DHT22;2411;47.060;15.064;2022-08-04T12:41:21;30.50;1.00
4795;DHT22;2411;47.060;15.064;2022-08-04T12:43:48;30.50;1.00
4795;DHT22;2411;47.060;15.064;2022-08-04T12:46:24;30.50;1.00
4795;DHT22;2411;47.060;15.064;2022-08-04T12:48:59;30.40;1.00
4795;DHT22;2411;47.060;15.064;2022-08-04T12:51:27;30.60;1.00
4795;DHT22;2411;47.060;15.064;2022-08-04T12:54:22;30.60;1.00
4795;DHT22;2411;47.060;15.064;2022-08-04T12:56:57;30.70;1.00
4795;DHT22;2411;47.060;15.064;2022-08-04T12:59:24;30.70;1.00
4795;DHT22;2411;47.060;15.064;2022-08-04T13:01:53;30.80;1.00
4795;DHT22;2411;47.060;15.064;2022-08-04T13:04:37;30.90;1.00
4795;DHT22;2411;47.060;15.064;2022-08-04T13:07:22;30.90;1.00
4795;DHT22;2411;47.060;15.064;2022-08-04T13:09:50;30.90;1.00
4795;DHT22;2411;47.060;15.064;2022-08-04T13:12:24;30.80;1.00
4795;DHT22;2411;47.060;15.064;2022-08-04T13:15:10;30.90;1.00
4795;DHT22;2411;47.060;15.064;2022-08-04T13:17:56;31.00;1.00
4795;DHT22;2411;47.060;15.064;2022-08-04T13:20:36;30.90;1.00
4795;DHT22;2411;47.060;15.064;2022-08-04T13:23:11;31.00;1.00
4795;DHT22;2411;47.060;15.064;2022-08-04T13:25:49;30.90;1.00
4795;DHT22;2411;47.060;15.064;2022-08-04T13:28:42;31.00;1.00
4795;DHT22;2411;47.060;15.064;2022-08-04T13:31:14;31.00;1.00
4795;DHT22;2411;47.060;15.064;2022-08-04T13:33:44;31.00;1.00
4795;DHT22;2411;47.060;15.064;2022-08-04T13:36:13;30.90;1.00
4795;DHT22;2411;47.060;15.064;2022-08-04T13:38:50;30.90;1.00
4795;DHT22;2411;47.060;15.064;2022-08-04T13:41:18;30.80;1.00
4795;DHT22;2411;47.060;15.064;2022-08-04T13:43:54;30.90;1.00
4795;DHT22;2411;47.060;15.064;2022-08-04T13:49:24;30.90;1.00
4795;DHT22;2411;47.060;15.064;2022-08-04T13:52:10;31.00;1.00
4795;DHT22;2411;47.060;15.064;2022-08-04T13:54:40;31.10;1.00
4795;DHT22;2411;47.060;15.064;2022-08-04T13:57:16;31.10;1.00
4795;DHT22;2411;47.060;15.064;2022-08-04T13:59:48;31.10;1.00
4795;DHT22;2411;47.060;15.064;2022-08-04T14:02:42;31.20;1.00
4795;DHT22;2411;47.060;15.064;2022-08-04T14:05:29;31.20;1.00
4795;DHT22;2411;47.060;15.064;2022-08-04T14:08:24;31.20;1.00
4795;DHT22;2411;47.060;15.064;2022-08-04T14:10:55;31.20;1.00
4795;DHT22;2411;47.060;15.064;2022-08-04T14:13:33;31.10;1.00
4795;DHT22;2411;47.060;15.064;2022-08-04T14:16:20;31.10;1.00
4795;DHT22;2411;47.060;15.064;2022-08-04T14:18:49;31.10;1.00
4795;DHT22;2411;47.060;15.064;2022-08-04T14:21:23;31.10;1.00
4795;DHT22;2411;47.060;15.064;2022-08-04T14:23:52;31.10;1.00
4795;DHT22;2411;47.060;15.064;2022-08-04T14:26:28;31.20;1.00
4795;DHT22;2411;47.060;15.064;2022-08-04T14:29:10;31.20;1.00
4795;DHT22;2411;47.060;15.064;2022-08-04T14:32:04;31.20;1.00
4795;DHT22;2411;47.060;15.064;2022-08-04T14:34:51;31.10;1.00
4795;DHT22;2411;47.060;15.064;2022-08-04T14:37:18;31.10;1.00
4795;DHT22;2411;47.060;15.064;2022-08-04T14:39:50;31.20;1.00
4795;DHT22;2411;47.060;15.064;2022-08-04T14:42:45;31.20;1.00
4795;DHT22;2411;47.060;15.064;2022-08-04T14:47:59;31.30;1.00
4795;DHT22;2411;47.060;15.064;2022-08-04T14:53:09;31.30;1.00
4795;DHT22;2411;47.060;15.064;2022-08-04T14:55:39;31.30;1.00
4795;DHT22;2411;47.060;15.064;2022-08-04T14:58:06;31.30;1.00
4795;DHT22;2411;47.060;15.064;2022-08-04T15:00:56;31.40;1.00
4795;DHT22;2411;47.060;15.064;2022-08-04T15:03:24;31.50;1.00
4795;DHT22;2411;47.060;15.064;2022-08-04T15:05:51;31.50;1.00
4795;DHT22;2411;47.060;15.064;2022-08-04T15:08:31;31.50;1.00
4795;DHT22;2411;47.060;15.064;2022-08-04T15:10:59;31.60;1.00
4795;DHT22;2411;47.060;15.064;2022-08-04T15:13:30;31.60;1.00
4795;DHT22;2411;47.060;15.064;2022-08-04T15:15:58;31.70;1.00
4795;DHT22;2411;47.060;15.064;2022-08-04T15:18:37;31.70;1.00
4795;DHT22;2411;47.060;15.064;2022-08-04T15:21:06;31.90;1.00
4795;DHT22;2411;47.060;15.064;2022-08-04T15:23:34;32.00;1.00
4795;DHT22;2411;47.060;15.064;2022-08-04T15:26:09;32.20;1.00
4795;DHT22;2411;47.060;15.064;2022-08-04T15:28:39;32.30;1.00
4795;DHT22;2411;47.060;15.064;2022-08-04T15:31:08;32.50;1.00
4795;DHT22;2411;47.060;15.064;2022-08-04T15:33:56;32.50;1.00
4795;DHT22;2411;47.060;15.064;2022-08-04T15:39:47;32.10;1.00
4795;DHT22;2411;47.060;15.064;2022-08-04T15:53:25;31.30;1.00
4795;DHT22;2411;47.060;15.064;2022-08-04T15:59:05;31.20;1.00
4795;DHT22;2411;47.060;15.064;2022-08-04T16:02:27;31.20;1.00
4795;DHT22;2411;47.060;15.064;2022-08-04T16:05:35;31.00;1.00
4795;DHT22;2411;47.060;15.064;2022-08-04T16:08:12;31.00;1.00
4795;DHT22;2411;47.060;15.064;2022-08-04T16:10:43;31.20;1.00
4795;DHT22;2411;47.060;15.064;2022-08-04T16:13:14;32.30;1.00
4795;DHT22;2411;47.060;15.064;2022-08-04T16:20:58;36.20;1.00
4795;DHT22;2411;47.060;15.064;2022-08-04T16:23:49;37.20;1.00
4795;DHT22;2411;47.060;15.064;2022-08-04T16:34:47;39.20;1.00
4795;DHT22;2411;47.060;15.064;2022-08-04T16:37:33;39.60;1.00
4795;DHT22;2411;47.060;15.064;2022-08-04T16:40:27;39.70;1.00
4795;DHT22;2411;47.060;15.064;2022-08-04T16:45:51;40.50;1.00
4795;DHT22;2411;47.060;15.064;2022-08-04T16:48:30;40.70;1.00
4795;DHT22;2411;47.060;15.064;2022-08-04T16:51:05;40.60;1.00
4795;DHT22;2411;47.060;15.064;2022-08-04T16:53:39;40.80;1.00
4795;DHT22;2411;47.060;15.064;2022-08-04T16:56:30;40.40;1.00
4795;DHT22;2411;47.060;15.064;2022-08-04T16:59:10;39.80;1.00
4795;DHT22;2411;47.060;15.064;2022-08-04T17:01:47;40.00;1.00
4795;DHT22;2411;47.060;15.064;2022-08-04T17:04:15;40.20;1.00
4795;DHT22;2411;47.060;15.064;2022-08-04T17:06:43;40.40;1.00
4795;DHT22;2411;47.060;15.064;2022-08-04T17:09:17;39.80;1.00
4795;DHT22;2411;47.060;15.064;2022-08-04T17:11:46;39.90;1.00
4795;DHT22;2411;47.060;15.064;2022-08-04T17:14:24;39.70;1.00
4795;DHT22;2411;47.060;15.064;2022-08-04T17:16:53;40.00;1.00
4795;DHT22;2411;47.060;15.064;2022-08-04T17:19:21;39.90;1.00
4795;DHT22;2411;47.060;15.064;2022-08-04T17:22:06;39.90;1.00
4795;DHT22;2411;47.060;15.064;2022-08-04T17:24:38;39.50;1.00
4795;DHT22;2411;47.060;15.064;2022-08-04T17:27:06;39.20;1.00
4795;DHT22;2411;47.060;15.064;2022-08-04T17:29:54;39.00;1.00
4795;DHT22;2411;47.060;15.064;2022-08-04T17:32:22;38.70;1.00
4795;DHT22;2411;47.060;15.064;2022-08-04T17:34:55;36.60;1.00
4795;DHT22;2411;47.060;15.064;2022-08-04T17:37:23;34.50;1.00
4795;DHT22;2411;47.060;15.064;2022-08-04T17:40:13;33.30;1.00
4795;DHT22;2411;47.060;15.064;2022-08-04T17:43:04;32.10;1.00
4795;DHT22;2411;47.060;15.064;2022-08-04T17:46:17;30.90;1.00
4795;DHT22;2411;47.060;15.064;2022-08-04T17:54:34;28.50;1.00
4795;DHT22;2411;47.060;15.064;2022-08-04T17:57:18;27.80;1.00
4795;DHT22;2411;47.060;15.064;2022-08-04T17:59:54;27.60;1.00
4795;DHT22;2411;47.060;15.064;2022-08-04T18:02:28;27.30;1.00
4795;DHT22;2411;47.060;15.064;2022-08-04T18:05:26;27.10;1.00
4795;DHT22;2411;47.060;15.064;2022-08-04T18:08:13;26.80;1.00
4795;DHT22;2411;47.060;15.064;2022-08-04T18:11:01;26.70;1.00
4795;DHT22;2411;47.060;15.064;2022-08-04T18:13:28;26.50;1.00
4795;DHT22;2411;47.060;15.064;2022-08-04T18:16:09;26.30;1.00
4795;DHT22;2411;47.060;15.064;2022-08-04T18:19:11;26.10;1.00
4795;DHT22;2411;47.060;15.064;2022-08-04T18:21:39;25.80;1.00
4795;DHT22;2411;47.060;15.064;2022-08-04T18:24:29;25.50;1.00
4795;DHT22;2411;47.060;15.064;2022-08-04T18:27:02;25.30;1.00
4795;DHT22;2411;47.060;15.064;2022-08-04T18:29:33;25.10;1.00
4795;DHT22;2411;47.060;15.064;2022-08-04T18:32:06;24.90;1.00
4795;DHT22;2411;47.060;15.064;2022-08-04T18:34:35;24.80;1.00
4795;DHT22;2411;47.060;15.064;2022-08-04T18:37:20;24.70;1.00
4795;DHT22;2411;47.060;15.064;2022-08-04T18:40:08;24.60;1.00
4795;DHT22;2411;47.060;15.064;2022-08-04T18:42:56;24.50;1.00
4795;DHT22;2411;47.060;15.064;2022-08-04T18:45:25;24.40;1.00
4795;DHT22;2411;47.060;15.064;2022-08-04T18:48:01;24.40;1.00
4795;DHT22;2411;47.060;15.064;2022-08-04T18:50:40;24.20;1.00
4795;DHT22;2411;47.060;15.064;2022-08-04T18:53:26;24.10;1.00
4795;DHT22;2411;47.060;15.064;2022-08-04T18:56:03;24.10;1.00
4795;DHT22;2411;47.060;15.064;2022-08-04T18:58:45;24.00;1.00
4795;DHT22;2411;47.060;15.064;2022-08-04T19:01:13;23.90;1.00
4795;DHT22;2411;47.060;15.064;2022-08-04T19:03:41;23.80;1.00
4795;DHT22;2411;47.060;15.064;2022-08-04T19:06:13;23.80;1.00
4795;DHT22;2411;47.060;15.064;2022-08-04T19:08:41;23.70;1.00
4795;DHT22;2411;47.060;15.064;2022-08-04T19:11:11;23.60;1.00
4795;DHT22;2411;47.060;15.064;2022-08-04T19:14:00;23.50;1.00
4795;DHT22;2411;47.060;15.064;2022-08-04T19:16:30;23.40;1.00
4795;DHT22;2411;47.060;15.064;2022-08-04T19:18:59;23.30;1.00
4795;DHT22;2411;47.060;15.064;2022-08-04T19:21:28;23.30;1.00
4795;DHT22;2411;47.060;15.064;2022-08-04T19:24:15;23.20;1.00
4795;DHT22;2411;47.060;15.064;2022-08-04T19:27:00;23.10;1.00
4795;DHT22;2411;47.060;15.064;2022-08-04T19:29:33;23.00;1.00
4795;DHT22;2411;47.060;15.064;2022-08-04T19:32:04;22.90;1.00
4795;DHT22;2411;47.060;15.064;2022-08-04T19:34:44;22.90;1.00
4795;DHT22;2411;47.060;15.064;2022-08-04T19:37:32;22.80;1.00
4795;DHT22;2411;47.060;15.064;2022-08-04T19:40:19;22.60;1.00
4795;DHT22;2411;47.060;15.064;2022-08-04T19:42:59;22.50;1.00
4795;DHT22;2411;47.060;15.064;2022-08-04T19:45:41;22.40;1.00
4795;DHT22;2411;47.060;15.064;2022-08-04T19:48:11;22.40;1.00
4795;DHT22;2411;47.060;15.064;2022-08-04T19:50:45;22.30;1.00
4795;DHT22;2411;47.060;15.064;2022-08-04T19:53:14;22.20;1.00
4795;DHT22;2411;47.060;15.064;2022-08-04T19:55:46;22.10;1.00
4795;DHT22;2411;47.060;15.064;2022-08-04T19:58:33;22.10;1.00
4795;DHT22;2411;47.060;15.064;2022-08-04T20:01:00;22.00;1.00
4795;DHT22;2411;47.060;15.064;2022-08-04T20:03:27;22.00;1.00
4795;DHT22;2411;47.060;15.064;2022-08-04T20:06:14;22.00;1.00
4795;DHT22;2411;47.060;15.064;2022-08-04T20:08:41;21.80;1.00
4795;DHT22;2411;47.060;15.064;2022-08-04T20:11:13;21.70;1.00
4795;DHT22;2411;47.060;15.064;2022-08-04T20:13:41;21.70;1.00
4795;DHT22;2411;47.060;15.064;2022-08-04T20:16:09;21.60;1.00
4795;DHT22;2411;47.060;15.064;2022-08-04T20:18:56;21.50;1.00
4795;DHT22;2411;47.060;15.064;2022-08-04T20:21:30;21.50;1.00
4795;DHT22;2411;47.060;15.064;2022-08-04T20:24:17;21.50;1.00
4795;DHT22;2411;47.060;15.064;2022-08-04T20:27:05;21.40;1.00
4795;DHT22;2411;47.060;15.064;2022-08-04T20:29:37;21.40;1.00
4795;DHT22;2411;47.060;15.064;2022-08-04T20:32:09;21.40;1.00
4795;DHT22;2411;47.060;15.064;2022-08-04T20:34:37;21.30;1.00
4795;DHT22;2411;47.060;15.064;2022-08-04T20:37:07;21.20;1.00
4795;DHT22;2411;47.060;15.064;2022-08-04T20:39:58;21.10;1.00
4795;DHT22;2411;47.060;15.064;2022-08-04T20:42:28;21.10;1.00
4795;DHT22;2411;47.060;15.064;2022-08-04T20:45:01;21.00;1.00
4795;DHT22;2411;47.060;15.064;2022-08-04T20:47:30;21.00;1.00
4795;DHT22;2411;47.060;15.064;2022-08-04T20:50:06;21.00;1.00
4795;DHT22;2411;47.060;15.064;2022-08-04T20:52:35;20.90;1.00
4795;DHT22;2411;47.060;15.064;2022-08-04T20:55:04;20.80;1.00
4795;DHT22;2411;47.060;15.064;2022-08-04T20:57:31;20.80;1.00
4795;DHT22;2411;47.060;15.064;2022-08-04T21:00:15;20.80;1.00
4795;DHT22;2411;47.060;15.064;2022-08-04T21:02:42;20.70;1.00
4795;DHT22;2411;47.060;15.064;2022-08-04T21:05:10;20.70;1.00
4795;DHT22;2411;47.060;15.064;2022-08-04T21:07:37;20.70;1.00
4795;DHT22;2411;47.060;15.064;2022-08-04T21:10:14;20.60;1.00
4795;DHT22;2411;47.060;15.064;2022-08-04T21:12:47;20.60;1.00
4795;DHT22;2411;47.060;15.064;2022-08-04T21:15:34;20.60;1.00
4795;DHT22;2411;47.060;15.064;2022-08-04T21:18:21;20.50;1.00
4795;DHT22;2411;47.060;15.064;2022-08-04T21:20:55;20.40;1.00
4795;DHT22;2411;47.060;15.064;2022-08-04T21:23:22;20.40;1.00
4795;DHT22;2411;47.060;15.064;2022-08-04T21:26:03;20.40;1.00
4795;DHT22;2411;47.060;15.064;2022-08-04T21:28:36;20.30;1.00
4795;DHT22;2411;47.060;15.064;2022-08-04T21:31:04;20.30;1.00
4795;DHT22;2411;47.060;15.064;2022-08-04T21:33:47;20.20;1.00
4795;DHT22;2411;47.060;15.064;2022-08-04T21:36:34;20.10;1.00
4795;DHT22;2411;47.060;15.064;2022-08-04T21:39:02;20.10;1.00
4795;DHT22;2411;47.060;15.064;2022-08-04T21:41:37;20.10;1.00
4795;DHT22;2411;47.060;15.064;2022-08-04T21:44:25;20.10;1.00
4795;DHT22;2411;47.060;15.064;2022-08-04T21:46:53;20.10;1.00
4795;DHT22;2411;47.060;15.064;2022-08-04T21:49:20;20.10;1.00
4795;DHT22;2411;47.060;15.064;2022-08-04T21:51:47;19.90;1.00
4795;DHT22;2411;47.060;15.064;2022-08-04T21:54:26;20.00;1.00
4795;DHT22;2411;47.060;15.064;2022-08-04T21:56:53;19.90;1.00
4795;DHT22;2411;47.060;15.064;2022-08-04T21:59:21;19.90;1.00
4795;DHT22;2411;47.060;15.064;2022-08-04T22:01:56;19.90;1.00
4795;DHT22;2411;47.060;15.064;2022-08-04T22:04:26;19.80;1.00